Time;durP1;ratioP1;P1;durP2;ratioP2;P2;SDS_P1;SDS_P2;PMS_P1;PMS_P2;Temp;Humidity;BMP_temperature;BMP_pressure;BME280_temperature;BME280_humidity;BME280_pressure;Samples;Min_cycle;Max_cycle;Signal;HPM_P1;HPM_P2
2021/04/28 03:01:41;;;;;;;13.55;11.80;;;;;;;11.29;75.19;93878.08;829640;71;29658;-78
2021/04/28 03:16:28;;;;;;;17.95;11.97;;;;;;;11.35;75.36;93888.67;835565;71;32839;-78
2021/04/28 03:31:15;;;;;;;14.50;10.82;;;;;;;11.35;75.11;93889.98;827439;71;33175;-79
2021/04/28 03:46:16;;;;;;;12.60;10.78;;;;;;;11.54;74.91;93922.02;827553;71;32932;-75
2021/04/28 04:01:15;;;;;;;16.07;10.90;;;;;;;12.08;73.29;93924.36;827167;71;33467;-78
2021/04/28 04:16:19;;;;;;;24.92;16.25;;;;;;;12.70;72.22;93935.02;835130;71;32839;-76
2021/04/28 04:31:11;;;;;;;17.85;13.25;;;;;;;14.19;67.37;93950.80;828089;71;30587;-77
2021/04/28 04:46:30;;;;;;;11.28;9.73;;;;;;;15.56;58.81;93950.19;833633;71;32881;-77
2021/04/28 05:01:15;;;;;;;18.77;14.10;;;;;;;15.93;59.93;93973.96;833830;71;32712;-77
2021/04/28 05:16:15;;;;;;;23.25;18.00;;;;;;;16.11;60.41;93951.98;833253;71;32791;-75
2021/04/28 05:31:11;;;;;;;24.65;19.92;;;;;;;17.35;58.31;93990.02;823994;71;30299;-77
2021/04/28 05:46:15;;;;;;;15.25;13.40;;;;;;;19.61;49.11;93940.48;827804;71;31242;-84
2021/04/28 06:01:54;;;;;;;8.98;7.90;;;;;;;17.64;43.70;93934.98;837381;70;29287;-77
2021/04/28 06:16:16;;;;;;;12.15;10.60;;;;;;;17.52;45.85;93957.08;826976;71;32789;-77
2021/04/28 06:31:11;;;;;;;11.22;8.50;;;;;;;17.65;44.53;93964.37;827757;71;30272;-78
2021/04/28 06:46:17;;;;;;;11.00;8.75;;;;;;;18.27;44.27;93975.20;827457;71;32728;-79
2021/04/28 07:01:18;;;;;;;9.18;8.18;;;;;;;19.12;42.22;93980.59;833009;71;31783;-78
2021/04/28 07:46:33;;;;;;;10.72;9.48;;;;;;;20.66;39.00;93982.02;800409;74;32429;-82
2021/04/28 08:16:19;;;;;;;9.25;8.45;;;;;;;20.65;39.06;93976.47;827579;71;31755;-80
2021/04/28 09:01:42;;;;;;;8.90;8.10;;;;;;;21.76;38.19;93956.12;828969;71;28878;-81
2021/04/28 15:01:47;;;;;;;10.35;9.35;;;;;;;18.00;48.34;93748.05;826797;71;32339;-76
2021/04/28 15:16:19;;;;;;;11.85;10.53;;;;;;;17.58;48.49;93838.20;820579;71;31968;-75
2021/04/28 15:31:19;;;;;;;12.15;10.13;;;;;;;17.29;53.63;93895.92;826515;71;31835;-77
2021/04/28 15:46:18;;;;;;;16.57;12.68;;;;;;;16.90;68.72;93947.46;826804;71;31792;-78
2021/04/28 16:01:32;;;;;;;18.30;14.40;;;;;;;16.38;71.09;93966.89;823937;71;32313;-77
2021/04/28 16:16:15;;;;;;;16.37;13.03;;;;;;;15.99;72.29;93987.74;824201;71;31889;-77
2021/04/28 16:31:20;;;;;;;14.55;12.82;;;;;;;15.65;75.68;93977.06;821383;71;31848;-77
2021/04/28 16:46:14;;;;;;;16.62;12.28;;;;;;;15.39;77.42;94029.19;820516;71;30919;-76
2021/04/28 17:01:10;;;;;;;18.52;14.33;;;;;;;15.17;79.12;94058.12;821492;71;29240;-78
2021/04/28 17:16:10;;;;;;;15.48;12.90;;;;;;;14.79;79.10;94044.56;828485;71;29331;-78
2021/04/28 17:31:13;;;;;;;17.15;13.70;;;;;;;13.79;80.33;94013.24;827913;71;31483;-75
2021/04/28 17:46:17;;;;;;;26.07;18.23;;;;;;;12.49;88.31;93852.04;827100;71;32215;-76
2021/04/28 18:01:17;;;;;;;24.65;19.05;;;;;;;12.17;91.23;93897.53;827454;71;31774;-80
2021/04/28 18:16:14;;;;;;;25.37;19.50;;;;;;;11.96;93.48;93915.02;834640;71;30951;-77
2021/04/28 18:31:09;;;;;;;24.43;17.80;;;;;;;12.14;92.17;93948.10;821677;71;29411;-76
2021/04/28 18:46:08;;;;;;;21.95;17.52;;;;;;;12.57;91.00;93953.08;818884;71;28837;-77
2021/04/28 19:01:12;;;;;;;30.48;21.55;;;;;;;12.85;89.76;93956.11;823742;71;30203;-77
2021/04/28 19:16:22;;;;;;;28.20;21.23;;;;;;;12.98;88.80;93972.27;821340;71;31950;-78
2021/04/28 19:31:16;;;;;;;30.50;21.75;;;;;;;13.04;87.62;93978.13;822799;71;31865;-79
2021/04/28 19:46:15;;;;;;;32.03;23.67;;;;;;;13.06;87.27;93998.87;821390;71;28758;-78
2021/04/28 20:01:33;;;;;;;30.88;24.87;;;;;;;13.09;87.21;94011.42;816884;71;32134;-77
2021/04/28 20:16:14;;;;;;;34.35;23.90;;;;;;;13.08;86.43;94023.83;820611;71;31730;-78
2021/04/28 20:31:28;;;;;;;31.20;23.12;;;;;;;13.19;86.94;94049.27;816681;71;33899;-78
2021/04/28 20:46:18;;;;;;;32.33;23.65;;;;;;;13.33;86.91;94064.92;816204;71;31811;-77
2021/04/28 21:01:39;;;;;;;34.58;23.67;;;;;;;13.49;86.41;94063.86;826249;71;29350;-77
2021/04/28 21:16:08;;;;;;;36.42;23.85;;;;;;;13.55;85.99;94076.55;827774;71;28764;-79
2021/04/28 21:31:13;;;;;;;38.23;24.90;;;;;;;13.53;85.09;94074.00;828147;71;33368;-78
2021/04/28 21:46:14;;;;;;;43.73;29.75;;;;;;;12.95;86.02;94075.58;828719;71;32714;-77
2021/04/28 22:01:08;;;;;;;39.23;27.32;;;;;;;12.33;88.97;94088.55;820987;71;30239;-75
2021/04/28 22:16:14;;;;;;;39.78;27.70;;;;;;;12.48;89.85;94086.54;834625;71;32662;-76
2021/04/28 22:31:09;;;;;;;37.10;26.75;;;;;;;12.80;88.88;94100.55;821890;71;30315;-76
2021/04/28 22:46:15;;;;;;;30.57;21.73;;;;;;;13.01;88.41;94090.12;833714;71;32724;-76
2021/04/28 23:01:18;;;;;;;31.20;22.73;;;;;;;13.15;86.94;94070.20;820529;71;32756;-79
2021/04/28 23:16:32;;;;;;;25.70;19.12;;;;;;;13.08;86.44;94063.33;821460;71;32859;-77
2021/04/28 23:31:15;;;;;;;29.87;21.57;;;;;;;13.01;85.10;94062.47;833534;71;32751;-76
2021/04/28 23:46:08;;;;;;;21.30;17.05;;;;;;;12.94;83.96;94069.33;827106;71;29714;-77
